Time;durP1;ratioP1;P1;durP2;ratioP2;P2;SDS_P1;SDS_P2;PMS_P1;PMS_P2;Temp;Humidity;BMP_temperature;BMP_pressure;BME280_temperature;BME280_humidity;BME280_pressure;Samples;Min_cycle;Max_cycle;Signal;HPM_P1;HPM_P2
2021/10/12 00:01:15;;;;;;;;;;;21.10;55.30;;;;;;5071543;28;19971;-56
2021/10/12 00:03:42;;;;;;;;;;;21.10;55.30;;;;;;5072873;28;19975;-54
2021/10/12 00:06:09;;;;;;;;;;;21.10;55.30;;;;;;5071282;28;20356;-53
2021/10/12 00:08:37;;;;;;;;;;;21.10;55.30;;;;;;5072629;28;19967;-55
2021/10/12 00:11:04;;;;;;;;;;;21.10;55.30;;;;;;5087628;28;19928;-54
2021/10/12 00:13:32;;;;;;;;;;;21.10;55.30;;;;;;5072565;28;19956;-55
2021/10/12 00:15:59;;;;;;;;;;;21.10;55.30;;;;;;5072214;28;19975;-56
2021/10/12 00:18:26;;;;;;;;;;;21.10;55.30;;;;;;5072123;28;20392;-57
2021/10/12 00:20:53;;;;;;;;;;;21.10;55.30;;;;;;5072346;28;19942;-58
2021/10/12 00:23:20;;;;;;;;;;;21.10;55.80;;;;;;5088165;28;20628;-57
2021/10/12 00:25:47;;;;;;;;;;;21.10;55.30;;;;;;5072359;28;19932;-53
2021/10/12 00:28:14;;;;;;;;;;;21.10;55.30;;;;;;5072439;28;19974;-54
2021/10/12 00:30:41;;;;;;;;;;;21.10;55.30;;;;;;5071990;28;20388;-54
2021/10/12 00:33:08;;;;;;;;;;;21.10;55.30;;;;;;5072279;28;20017;-56
2021/10/12 00:35:36;;;;;;;;;;;21.10;55.30;;;;;;5072191;28;19929;-54
2021/10/12 00:38:02;;;;;;;;;;;21.10;55.30;;;;;;5072155;28;20344;-55
2021/10/12 00:40:30;;;;;;;;;;;21.10;55.30;;;;;;5070755;28;19978;-55
2021/10/12 00:42:57;;;;;;;;;;;21.10;55.30;;;;;;5071773;28;19947;-54
2021/10/12 00:45:24;;;;;;;;;;;21.10;55.30;;;;;;5072159;28;20249;-55
2021/10/12 00:47:55;;;;;;;;;;;21.10;55.20;;;;;;5070977;28;19924;-55
2021/10/12 00:50:22;;;;;;;;;;;21.10;55.20;;;;;;5072201;28;19944;-53
2021/10/12 00:52:49;;;;;;;;;;;21.10;55.30;;;;;;5070932;28;19983;-57
2021/10/12 00:55:16;;;;;;;;;;;21.10;55.30;;;;;;5071124;28;20266;-53
2021/10/12 00:57:43;;;;;;;;;;;21.10;55.20;;;;;;5071541;28;20380;-54
2021/10/12 01:00:11;;;;;;;;;;;21.10;55.20;;;;;;5070599;28;19931;-55
2021/10/12 01:02:37;;;;;;;;;;;21.10;55.20;;;;;;5070958;28;20331;-53
2021/10/12 01:05:05;;;;;;;;;;;21.10;55.20;;;;;;5070525;28;19972;-55
2021/10/12 01:07:32;;;;;;;;;;;21.10;55.20;;;;;;5070765;28;19924;-50
2021/10/12 01:09:59;;;;;;;;;;;21.10;55.20;;;;;;5070875;28;19925;-56
2021/10/12 01:12:26;;;;;;;;;;;21.10;55.30;;;;;;5070450;28;20443;-53
2021/10/12 01:14:53;;;;;;;;;;;21.10;55.20;;;;;;5071844;28;20418;-52
2021/10/12 01:17:20;;;;;;;;;;;21.10;55.20;;;;;;5057073;28;19978;-54
2021/10/12 01:19:47;;;;;;;;;;;21.10;55.20;;;;;;5071844;28;19955;-56
2021/10/12 01:22:14;;;;;;;;;;;21.10;55.20;;;;;;5072065;28;19924;-53
2021/10/12 01:24:41;;;;;;;;;;;21.10;55.20;;;;;;5071523;28;20366;-53
2021/10/12 01:27:07;;;;;;;;;;;21.10;55.20;;;;;;5070399;28;19925;-54
2021/10/12 01:29:34;;;;;;;;;;;21.10;55.20;;;;;;5071380;28;19963;-53
2021/10/12 01:32:01;;;;;;;;;;;21.10;55.20;;;;;;5070466;28;20440;-55
2021/10/12 01:34:28;;;;;;;;;;;21.10;55.20;;;;;;5071293;28;19974;-57
2021/10/12 01:36:55;;;;;;;;;;;21.10;55.20;;;;;;5070092;28;19974;-56
2021/10/12 01:39:22;;;;;;;;;;;21.10;55.80;;;;;;5071769;28;19978;-55
2021/10/12 01:41:49;;;;;;;;;;;21.10;55.20;;;;;;5070406;28;19947;-54
2021/10/12 01:44:17;;;;;;;;;;;21.10;55.20;;;;;;5087539;28;20326;-55
2021/10/12 01:46:44;;;;;;;;;;;21.10;55.20;;;;;;5069009;28;20008;-54
2021/10/12 01:49:12;;;;;;;;;;;21.10;55.20;;;;;;5070523;28;20003;-56
2021/10/12 01:51:39;;;;;;;;;;;21.10;55.20;;;;;;5071345;28;19928;-53
2021/10/12 01:54:20;;;;;;;;;;;21.10;55.20;;;;;;5070111;28;19924;-56
2021/10/12 01:56:47;;;;;;;;;;;21.10;55.20;;;;;;5070059;28;19959;-57
2021/10/12 01:59:14;;;;;;;;;;;21.10;55.20;;;;;;5065328;28;20015;-55
2021/10/12 02:01:41;;;;;;;;;;;21.10;55.20;;;;;;5073088;28;19992;-55
2021/10/12 02:04:08;;;;;;;;;;;21.10;55.20;;;;;;5073665;28;19932;-56
2021/10/12 02:06:35;;;;;;;;;;;21.10;55.20;;;;;;5073812;28;19931;-55
2021/10/12 02:09:03;;;;;;;;;;;21.10;55.20;;;;;;5074560;28;19931;-50
2021/10/12 02:11:30;;;;;;;;;;;21.10;55.20;;;;;;5074989;28;19947;-54
2021/10/12 02:13:58;;;;;;;;;;;21.10;55.20;;;;;;5074645;28;19978;-53
2021/10/12 02:16:25;;;;;;;;;;;21.10;55.20;;;;;;5074659;28;19928;-56
2021/10/12 02:18:52;;;;;;;;;;;21.10;55.20;;;;;;5074475;28;19999;-55
2021/10/12 02:21:19;;;;;;;;;;;21.10;55.20;;;;;;5074551;28;19947;-55
2021/10/12 02:23:46;;;;;;;;;;;21.10;55.20;;;;;;5074571;28;20000;-56
2021/10/12 02:26:13;;;;;;;;;;;21.10;55.20;;;;;;5073203;28;19998;-56
2021/10/12 02:28:40;;;;;;;;;;;21.10;55.20;;;;;;5074744;28;20051;-54
2021/10/12 02:31:07;;;;;;;;;;;21.10;55.20;;;;;;5074418;28;20018;-55
2021/10/12 02:33:34;;;;;;;;;;;21.10;55.20;;;;;;5074798;28;19975;-53
2021/10/12 02:36:01;;;;;;;;;;;21.10;55.20;;;;;;5071556;28;19924;-53
2021/10/12 02:38:28;;;;;;;;;;;21.10;55.10;;;;;;5074399;28;19925;-56
2021/10/12 02:40:55;;;;;;;;;;;21.10;55.20;;;;;;5073344;28;19931;-55
2021/10/12 02:43:22;;;;;;;;;;;21.10;55.20;;;;;;5073758;28;19924;-56
2021/10/12 02:45:50;;;;;;;;;;;21.10;55.20;;;;;;5074424;28;19966;-56
2021/10/12 02:48:17;;;;;;;;;;;21.10;55.20;;;;;;5073644;28;20373;-56
2021/10/12 02:50:44;;;;;;;;;;;21.10;55.20;;;;;;5072951;28;19930;-54
2021/10/12 02:53:11;;;;;;;;;;;21.10;55.20;;;;;;5072793;28;19960;-57
2021/10/12 02:55:38;;;;;;;;;;;21.10;55.20;;;;;;5072952;28;19929;-56
2021/10/12 02:58:05;;;;;;;;;;;21.10;55.20;;;;;;5073440;28;19968;-55
2021/10/12 03:00:32;;;;;;;;;;;21.10;55.20;;;;;;5073100;28;20302;-54
2021/10/12 03:02:59;;;;;;;;;;;21.10;55.20;;;;;;5072620;28;19937;-55
2021/10/12 03:05:26;;;;;;;;;;;21.10;55.20;;;;;;5074061;28;19925;-54
2021/10/12 03:07:53;;;;;;;;;;;21.10;55.20;;;;;;5073961;28;19929;-55
2021/10/12 03:10:21;;;;;;;;;;;21.10;55.20;;;;;;5072775;28;19925;-57
2021/10/12 03:12:47;;;;;;;;;;;21.10;55.20;;;;;;5072548;28;20014;-53
2021/10/12 03:15:14;;;;;;;;;;;21.10;55.20;;;;;;5072515;28;19967;-57
2021/10/12 03:17:41;;;;;;;;;;;21.00;55.10;;;;;;5063795;28;19975;-54
2021/10/12 03:20:08;;;;;;;;;;;21.10;55.20;;;;;;5066382;28;20011;-57
2021/10/12 03:22:37;;;;;;;;;;;21.10;55.20;;;;;;5072175;28;19932;-57
2021/10/12 03:25:04;;;;;;;;;;;21.10;55.20;;;;;;5072395;28;19975;-55
2021/10/12 03:27:31;;;;;;;;;;;21.10;55.20;;;;;;5072302;28;19967;-54
2021/10/12 03:29:58;;;;;;;;;;;21.10;55.20;;;;;;5073617;28;21664;-54
2021/10/12 03:32:25;;;;;;;;;;;21.10;55.20;;;;;;5072913;28;20011;-52
2021/10/12 03:34:52;;;;;;;;;;;21.10;55.30;;;;;;5073180;28;19924;-53
2021/10/12 03:37:19;;;;;;;;;;;21.10;55.20;;;;;;5073029;28;19928;-54
2021/10/12 03:39:46;;;;;;;;;;;21.10;55.20;;;;;;5072080;28;19925;-55
2021/10/12 03:42:13;;;;;;;;;;;21.10;55.20;;;;;;5072078;28;19994;-54
2021/10/12 03:44:40;;;;;;;;;;;21.10;55.20;;;;;;5085986;28;20388;-54
2021/10/12 03:47:07;;;;;;;;;;;21.10;55.20;;;;;;5071877;28;20020;-56
2021/10/12 03:49:34;;;;;;;;;;;21.10;55.20;;;;;;5071461;28;19928;-53
2021/10/12 03:52:01;;;;;;;;;;;21.10;55.20;;;;;;5071926;28;19976;-54
2021/10/12 03:54:28;;;;;;;;;;;21.10;55.20;;;;;;5071470;28;20475;-54
2021/10/12 03:56:55;;;;;;;;;;;21.10;55.20;;;;;;5072396;28;19978;-54
2021/10/12 03:59:22;;;;;;;;;;;21.10;55.20;;;;;;5072979;28;19925;-53
2021/10/12 04:01:49;;;;;;;;;;;21.00;55.20;;;;;;5073018;28;19960;-55
2021/10/12 04:04:16;;;;;;;;;;;21.10;55.30;;;;;;5072851;28;20330;-56
2021/10/12 04:06:43;;;;;;;;;;;21.00;55.10;;;;;;5072807;28;19928;-54
2021/10/12 04:09:10;;;;;;;;;;;21.10;55.30;;;;;;5072272;28;19924;-56
2021/10/12 04:11:37;;;;;;;;;;;21.10;55.20;;;;;;5071259;28;20396;-56
2021/10/12 04:14:03;;;;;;;;;;;21.00;55.10;;;;;;5072209;28;19978;-56
2021/10/12 04:16:31;;;;;;;;;;;21.00;55.10;;;;;;5071431;28;20348;-56
2021/10/12 04:18:58;;;;;;;;;;;21.10;55.20;;;;;;5071749;28;19930;-55
2021/10/12 04:21:25;;;;;;;;;;;21.00;55.10;;;;;;5072398;28;20339;-56
2021/10/12 04:23:52;;;;;;;;;;;21.10;55.20;;;;;;5071031;28;19928;-56
2021/10/12 04:26:19;;;;;;;;;;;21.10;55.20;;;;;;5072462;28;20288;-56
2021/10/12 04:28:46;;;;;;;;;;;21.10;55.20;;;;;;5071724;28;19929;-57
2021/10/12 04:31:13;;;;;;;;;;;21.10;55.30;;;;;;5071331;28;19924;-54
2021/10/12 04:33:40;;;;;;;;;;;21.10;55.20;;;;;;5072414;28;19931;-54
2021/10/12 04:36:07;;;;;;;;;;;21.10;55.20;;;;;;5072231;28;20007;-54
2021/10/12 04:38:34;;;;;;;;;;;21.00;55.10;;;;;;5071963;28;20020;-56
2021/10/12 04:41:02;;;;;;;;;;;21.00;55.10;;;;;;5071147;28;20308;-55
2021/10/12 04:43:29;;;;;;;;;;;21.10;55.20;;;;;;5072151;28;19924;-54
2021/10/12 04:45:55;;;;;;;;;;;21.10;55.20;;;;;;5071879;28;19924;-54
2021/10/12 04:48:23;;;;;;;;;;;21.10;55.20;;;;;;5071696;28;20025;-52
2021/10/12 04:50:50;;;;;;;;;;;21.10;55.20;;;;;;5072179;28;20289;-55
2021/10/12 04:53:17;;;;;;;;;;;21.00;55.10;;;;;;5071716;28;20016;-54
2021/10/12 04:55:44;;;;;;;;;;;21.10;55.20;;;;;;5072429;28;19972;-56
2021/10/12 04:58:11;;;;;;;;;;;21.00;55.10;;;;;;5070662;28;20007;-51
2021/10/12 05:00:38;;;;;;;;;;;21.00;55.10;;;;;;5071745;28;20019;-54
2021/10/12 05:03:06;;;;;;;;;;;21.10;55.20;;;;;;5071805;28;19925;-56
2021/10/12 05:05:34;;;;;;;;;;;21.00;55.10;;;;;;5072032;28;19929;-56
2021/10/12 05:08:01;;;;;;;;;;;21.10;55.20;;;;;;5070800;28;19924;-55
2021/10/12 05:10:28;;;;;;;;;;;21.10;55.20;;;;;;5071634;28;20364;-54
2021/10/12 05:12:55;;;;;;;;;;;21.10;55.20;;;;;;5071475;28;19968;-51
2021/10/12 05:15:24;;;;;;;;;;;21.00;55.10;;;;;;5071633;28;19959;-53
2021/10/12 05:17:51;;;;;;;;;;;21.10;55.20;;;;;;5070536;28;19964;-55
2021/10/12 05:20:18;;;;;;;;;;;21.10;55.20;;;;;;5071213;28;19924;-54
2021/10/12 05:22:47;;;;;;;;;;;21.10;55.30;;;;;;5070278;28;19974;-57
2021/10/12 05:25:14;;;;;;;;;;;21.10;55.30;;;;;;5072373;28;20026;-55
2021/10/12 05:27:42;;;;;;;;;;;21.10;55.20;;;;;;5073407;28;19924;-56
2021/10/12 05:30:10;;;;;;;;;;;21.00;55.10;;;;;;5064337;28;19934;-57
2021/10/12 05:32:38;;;;;;;;;;;21.00;55.20;;;;;;5074155;28;19933;-55
2021/10/12 05:35:05;;;;;;;;;;;21.00;55.10;;;;;;5071656;28;19928;-56
2021/10/12 05:37:32;;;;;;;;;;;21.10;55.20;;;;;;5074983;28;20419;-55
2021/10/12 05:39:59;;;;;;;;;;;21.10;55.20;;;;;;5090043;28;20326;-57
2021/10/12 05:42:26;;;;;;;;;;;21.10;55.20;;;;;;5074673;28;20012;-55
2021/10/12 05:44:53;;;;;;;;;;;21.10;55.20;;;;;;5075721;28;20419;-57
2021/10/12 05:47:20;;;;;;;;;;;21.00;55.10;;;;;;5057870;28;19936;-56
2021/10/12 05:49:47;;;;;;;;;;;21.10;55.20;;;;;;5075412;28;19960;-55
2021/10/12 05:52:18;;;;;;;;;;;21.10;55.20;;;;;;5075216;28;19928;-54
2021/10/12 05:55:10;;;;;;;;;;;21.10;55.30;;;;;;5073701;28;19970;-54
2021/10/12 05:57:42;;;;;;;;;;;21.00;55.70;;;;;;5073530;28;19932;-55
2021/10/12 06:00:09;;;;;;;;;;;21.10;55.20;;;;;;5074706;28;19931;-54
2021/10/12 06:02:36;;;;;;;;;;;21.10;55.20;;;;;;5075001;28;19975;-57
2021/10/12 06:05:03;;;;;;;;;;;21.10;55.20;;;;;;5089517;28;19986;-54
2021/10/12 06:07:30;;;;;;;;;;;21.10;55.20;;;;;;5074777;28;19924;-54
2021/10/12 06:09:57;;;;;;;;;;;21.10;55.20;;;;;;5074710;28;19925;-55
2021/10/12 06:12:24;;;;;;;;;;;21.10;55.20;;;;;;5073364;28;19940;-55
2021/10/12 06:14:51;;;;;;;;;;;21.10;55.80;;;;;;5075096;28;20034;-54
2021/10/12 06:17:18;;;;;;;;;;;21.10;55.20;;;;;;5073152;28;19924;-52
2021/10/12 06:19:45;;;;;;;;;;;21.10;55.10;;;;;;5076255;28;20375;-57
2021/10/12 06:22:12;;;;;;;;;;;21.10;55.10;;;;;;5074477;28;19924;-54
2021/10/12 06:24:39;;;;;;;;;;;21.10;55.10;;;;;;5074892;28;20273;-56
2021/10/12 06:27:06;;;;;;;;;;;21.10;55.00;;;;;;5074191;28;20377;-57
2021/10/12 06:29:33;;;;;;;;;;;21.10;55.00;;;;;;5074429;28;19924;-54
2021/10/12 06:32:00;;;;;;;;;;;21.10;55.00;;;;;;5073571;28;19924;-55
2021/10/12 06:34:27;;;;;;;;;;;21.10;55.00;;;;;;5074269;28;19925;-53
2021/10/12 06:36:54;;;;;;;;;;;21.10;54.90;;;;;;5073270;28;19932;-57
2021/10/12 06:39:21;;;;;;;;;;;21.20;55.00;;;;;;5075061;28;19929;-54
2021/10/12 06:41:48;;;;;;;;;;;21.10;54.90;;;;;;5075820;28;19928;-53
2021/10/12 06:44:15;;;;;;;;;;;21.20;55.00;;;;;;5073999;28;19979;-55
2021/10/12 06:46:42;;;;;;;;;;;21.20;55.00;;;;;;5073946;28;19924;-52
2021/10/12 06:49:09;;;;;;;;;;;21.20;55.00;;;;;;5039690;28;20304;-57
2021/10/12 06:51:36;;;;;;;;;;;21.20;55.00;;;;;;5073157;28;19967;-54
2021/10/12 06:54:20;;;;;;;;;;;21.20;55.00;;;;;;5072861;28;20418;-56
2021/10/12 06:56:48;;;;;;;;;;;21.20;55.00;;;;;;5073814;28;19968;-54
2021/10/12 06:59:16;;;;;;;;;;;21.20;54.90;;;;;;5074090;28;19925;-57
2021/10/12 07:01:42;;;;;;;;;;;21.20;54.90;;;;;;5072995;28;19960;-56
2021/10/12 07:04:10;;;;;;;;;;;21.20;54.90;;;;;;5073567;28;19924;-57
2021/10/12 07:06:37;;;;;;;;;;;21.20;54.90;;;;;;5073906;28;19925;-57
2021/10/12 07:09:04;;;;;;;;;;;21.20;54.90;;;;;;5072412;28;19924;-55
2021/10/12 07:11:31;;;;;;;;;;;21.20;54.90;;;;;;5055741;28;20430;-53
2021/10/12 07:13:58;;;;;;;;;;;21.20;54.90;;;;;;5073615;28;19967;-55
2021/10/12 07:16:25;;;;;;;;;;;21.20;54.90;;;;;;5074660;28;19932;-55
2021/10/12 07:18:53;;;;;;;;;;;21.20;54.90;;;;;;5073709;28;19929;-53
2021/10/12 07:21:20;;;;;;;;;;;21.20;55.00;;;;;;5073846;28;19947;-57
2021/10/12 07:23:47;;;;;;;;;;;21.20;54.90;;;;;;5073183;28;19925;-57
2021/10/12 07:26:14;;;;;;;;;;;21.20;54.90;;;;;;5073121;28;19970;-53
2021/10/12 07:28:41;;;;;;;;;;;21.20;54.90;;;;;;5061020;28;19931;-56
2021/10/12 07:31:08;;;;;;;;;;;21.20;54.90;;;;;;5072248;28;19924;-54
2021/10/12 07:33:35;;;;;;;;;;;21.20;54.90;;;;;;5073342;28;20334;-58
2021/10/12 07:36:03;;;;;;;;;;;21.20;54.80;;;;;;5073429;28;20384;-57
2021/10/12 07:38:31;;;;;;;;;;;21.20;54.80;;;;;;5073127;28;19925;-54
2021/10/12 07:40:58;;;;;;;;;;;21.20;54.80;;;;;;5072963;28;19929;-57
2021/10/12 07:43:25;;;;;;;;;;;21.20;54.80;;;;;;5073231;28;19928;-53
2021/10/12 07:45:52;;;;;;;;;;;21.30;54.90;;;;;;5072009;28;20373;-53
2021/10/12 07:48:20;;;;;;;;;;;21.30;54.80;;;;;;5071882;28;19925;-53
2021/10/12 07:50:47;;;;;;;;;;;21.30;54.80;;;;;;5071561;28;19925;-54
2021/10/12 07:53:14;;;;;;;;;;;21.30;54.80;;;;;;5072484;28;19974;-50
2021/10/12 07:55:50;;;;;;;;;;;21.30;54.70;;;;;;5072583;28;20049;-54
2021/10/12 07:58:17;;;;;;;;;;;21.30;54.70;;;;;;5071787;28;19974;-54
2021/10/12 08:00:44;;;;;;;;;;;21.30;54.60;;;;;;5072558;28;19924;-53
2021/10/12 08:03:13;;;;;;;;;;;21.30;54.60;;;;;;5072296;28;20011;-53
2021/10/12 08:05:40;;;;;;;;;;;21.40;54.70;;;;;;5071195;28;19931;-56
2021/10/12 08:08:07;;;;;;;;;;;21.30;54.50;;;;;;5071168;28;19925;-55
2021/10/12 08:10:35;;;;;;;;;;;21.40;54.50;;;;;;5072018;28;20035;-58
2021/10/12 08:13:05;;;;;;;;;;;21.40;54.50;;;;;;5072502;28;20292;-54
2021/10/12 08:15:32;;;;;;;;;;;21.40;54.50;;;;;;5071893;28;20015;-52
2021/10/12 08:18:00;;;;;;;;;;;21.40;54.50;;;;;;5071029;28;19978;-58
2021/10/12 08:20:27;;;;;;;;;;;21.40;54.60;;;;;;5071431;28;20292;-52
2021/10/12 08:22:57;;;;;;;;;;;21.40;54.50;;;;;;5072193;28;19963;-53
2021/10/12 08:25:24;;;;;;;;;;;21.40;54.50;;;;;;5072041;28;19924;-55
2021/10/12 08:27:52;;;;;;;;;;;21.40;54.50;;;;;;5071100;28;19997;-56
2021/10/12 08:30:20;;;;;;;;;;;21.40;54.60;;;;;;5070923;28;19932;-55
2021/10/12 08:32:47;;;;;;;;;;;21.30;54.50;;;;;;5071019;28;20030;-52
2021/10/12 08:35:14;;;;;;;;;;;21.40;55.20;;;;;;5071809;28;19924;-53
2021/10/12 08:37:41;;;;;;;;;;;21.30;54.60;;;;;;5072181;28;19931;-54
2021/10/12 08:40:13;;;;;;;;;;;21.30;54.60;;;;;;5054697;28;19979;-54
2021/10/12 08:42:43;;;;;;;;;;;21.30;54.60;;;;;;5072341;28;19924;-53
2021/10/12 08:45:10;;;;;;;;;;;21.30;54.60;;;;;;5071547;28;20004;-54
2021/10/12 08:47:37;;;;;;;;;;;21.30;54.60;;;;;;5072081;28;20419;-54
2021/10/12 08:50:09;;;;;;;;;;;21.30;54.60;;;;;;5071998;28;19935;-52
2021/10/12 08:52:36;;;;;;;;;;;21.30;54.60;;;;;;5071136;28;19971;-55
2021/10/12 08:55:04;;;;;;;;;;;21.30;54.60;;;;;;5070756;28;19955;-54
2021/10/12 08:57:32;;;;;;;;;;;21.30;54.60;;;;;;5072049;28;19924;-55
2021/10/12 09:00:09;;;;;;;;;;;21.30;54.60;;;;;;5071611;28;19993;-54
2021/10/12 09:02:56;;;;;;;;;;;21.40;54.70;;;;;;5086437;28;19924;-55
2021/10/12 09:05:24;;;;;;;;;;;21.30;54.60;;;;;;5072479;28;19924;-55
2021/10/12 09:07:51;;;;;;;;;;;21.30;54.60;;;;;;5071732;28;19925;-53
2021/10/12 09:10:20;;;;;;;;;;;21.30;54.60;;;;;;5071804;28;19924;-54
2021/10/12 09:12:49;;;;;;;;;;;21.30;54.60;;;;;;5073837;28;19943;-57
2021/10/12 09:15:17;;;;;;;;;;;21.30;54.60;;;;;;5056607;28;19928;-57
2021/10/12 09:17:49;;;;;;;;;;;21.30;54.60;;;;;;5067663;28;19925;-56
2021/10/12 09:20:16;;;;;;;;;;;21.30;54.60;;;;;;5075159;28;19928;-57
2021/10/12 09:23:02;;;;;;;;;;;21.30;54.70;;;;;;5076098;28;19924;-57
2021/10/12 09:25:33;;;;;;;;;;;21.30;54.70;;;;;;5073591;28;19975;-52
2021/10/12 09:28:00;;;;;;;;;;;21.30;54.70;;;;;;5074274;28;19924;-52
2021/10/12 09:30:28;;;;;;;;;;;21.30;54.70;;;;;;5091018;28;20004;-56
2021/10/12 09:32:59;;;;;;;;;;;21.30;54.70;;;;;;5074175;28;19928;-55
2021/10/12 09:35:29;;;;;;;;;;;21.30;54.70;;;;;;5075419;28;19924;-54
2021/10/12 09:38:01;;;;;;;;;;;21.30;54.70;;;;;;5074285;28;19925;-57
2021/10/12 09:40:28;;;;;;;;;;;21.30;54.70;;;;;;5075088;28;19928;-57
2021/10/12 09:42:55;;;;;;;;;;;21.30;54.70;;;;;;5075611;28;19924;-56
2021/10/12 09:45:32;;;;;;;;;;;21.30;54.70;;;;;;5074210;28;19986;-54
2021/10/12 09:47:59;;;;;;;;;;;21.30;54.70;;;;;;5073985;28;19982;-55
2021/10/12 09:50:31;;;;;;;;;;;21.30;54.70;;;;;;5075675;28;20041;-56
2021/10/12 09:52:58;;;;;;;;;;;21.30;54.70;;;;;;5074819;28;19987;-53
2021/10/12 09:55:42;;;;;;;;;;;21.30;54.70;;;;;;5074573;28;19942;-56
2021/10/12 09:58:09;;;;;;;;;;;21.30;54.70;;;;;;5074576;28;19925;-56
2021/10/12 10:00:36;;;;;;;;;;;21.30;54.70;;;;;;5074017;28;19928;-52
2021/10/12 10:03:05;;;;;;;;;;;21.30;54.70;;;;;;5074279;28;19939;-54
2021/10/12 10:05:33;;;;;;;;;;;21.30;54.70;;;;;;5074103;28;20340;-58
2021/10/12 10:08:00;;;;;;;;;;;21.30;54.70;;;;;;5054163;28;19931;-55
2021/10/12 10:10:44;;;;;;;;;;;21.30;54.70;;;;;;5068611;28;19932;-56
2021/10/12 10:13:15;;;;;;;;;;;21.30;54.70;;;;;;5067707;28;19924;-54
2021/10/12 10:15:43;;;;;;;;;;;21.30;54.70;;;;;;5069802;28;20336;-56
2021/10/12 10:18:10;;;;;;;;;;;21.30;54.70;;;;;;5064897;28;20372;-55
2021/10/12 10:20:39;;;;;;;;;;;21.30;54.60;;;;;;5073437;28;19977;-52
2021/10/12 10:23:06;;;;;;;;;;;21.40;54.70;;;;;;5056516;28;20346;-55
2021/10/12 10:25:38;;;;;;;;;;;21.40;54.60;;;;;;5074902;28;19932;-53
2021/10/12 10:28:21;;;;;;;;;;;21.40;54.60;;;;;;5073577;28;19970;-54
2021/10/12 10:30:49;;;;;;;;;;;21.40;54.50;;;;;;5073797;28;19924;-57
2021/10/12 10:33:47;;;;;;;;;;;21.40;54.50;;;;;;5073875;28;19929;-58
2021/10/12 10:36:26;;;;;;;;;;;21.40;54.50;;;;;;5032396;28;19929;-57
2021/10/12 10:38:53;;;;;;;;;;;21.40;54.40;;;;;;5032468;28;20024;-53
2021/10/12 10:41:21;;;;;;;;;;;21.40;54.40;;;;;;5032175;28;19975;-57
2021/10/12 10:43:48;;;;;;;;;;;21.40;54.50;;;;;;5032186;28;20417;-53
2021/10/12 10:46:34;;;;;;;;;;;21.40;54.40;;;;;;5028895;28;19975;-57
2021/10/12 10:49:21;;;;;;;;;;;21.40;54.40;;;;;;5031762;28;19931;-55
2021/10/12 10:51:51;;;;;;;;;;;21.40;54.40;;;;;;5030657;28;19968;-55
2021/10/12 10:54:53;;;;;;;;;;;21.50;54.40;;;;;;5030205;28;19925;-58
2021/10/12 10:57:21;;;;;;;;;;;21.50;54.40;;;;;;4972787;28;19977;-55
2021/10/12 11:00:08;;;;;;;;;;;21.50;54.30;;;;;;4971484;28;19926;-52
2021/10/12 11:02:38;;;;;;;;;;;21.50;54.30;;;;;;4972741;28;19926;-57
2021/10/12 11:05:05;;;;;;;;;;;21.40;54.30;;;;;;4970791;28;19926;-58
2021/10/12 11:07:32;;;;;;;;;;;21.40;54.30;;;;;;4971419;28;20362;-58
2021/10/12 11:09:59;;;;;;;;;;;21.40;54.30;;;;;;4969196;28;19930;-56
2021/10/12 11:12:28;;;;;;;;;;;21.40;54.30;;;;;;4981757;28;20385;-54
2021/10/12 11:15:03;;;;;;;;;;;21.40;54.30;;;;;;4998179;28;19956;-53
2021/10/12 11:17:30;;;;;;;;;;;21.50;54.40;;;;;;5009792;28;19926;-57
2021/10/12 11:20:01;;;;;;;;;;;21.40;54.30;;;;;;4993164;28;20472;-55
2021/10/12 11:22:28;;;;;;;;;;;21.50;54.30;;;;;;5008035;28;20038;-52
2021/10/12 11:24:55;;;;;;;;;;;21.50;54.30;;;;;;5008723;28;19926;-57
2021/10/12 11:27:45;;;;;;;;;;;21.50;54.30;;;;;;4994230;28;19940;-57
2021/10/12 11:30:13;;;;;;;;;;;21.50;54.20;;;;;;5012272;28;19961;-56
2021/10/12 11:32:40;;;;;;;;;;;21.50;54.20;;;;;;5054901;28;19947;-56
2021/10/12 11:35:08;;;;;;;;;;;21.50;54.20;;;;;;5070972;28;20364;-57
2021/10/12 11:37:54;;;;;;;;;;;21.50;54.20;;;;;;5054963;28;19970;-55
2021/10/12 11:40:23;;;;;;;;;;;21.50;54.30;;;;;;5072573;28;19932;-54
2021/10/12 11:42:52;;;;;;;;;;;21.50;54.30;;;;;;5071877;28;19955;-54
2021/10/12 11:45:19;;;;;;;;;;;21.50;54.30;;;;;;5071956;28;19924;-57
2021/10/12 11:47:46;;;;;;;;;;;21.50;54.20;;;;;;5072633;28;20396;-54
2021/10/12 11:50:14;;;;;;;;;;;21.50;54.30;;;;;;5071767;28;19979;-57
2021/10/12 11:52:45;;;;;;;;;;;21.50;54.30;;;;;;5071685;28;19925;-53
2021/10/12 11:55:13;;;;;;;;;;;21.50;54.30;;;;;;5072816;28;20279;-57
2021/10/12 11:57:49;;;;;;;;;;;21.50;54.30;;;;;;5071876;28;19942;-54
2021/10/12 12:00:18;;;;;;;;;;;21.50;54.30;;;;;;5072636;28;19928;-52
2021/10/12 12:02:45;;;;;;;;;;;21.50;54.20;;;;;;5071668;28;19924;-56
2021/10/12 12:05:12;;;;;;;;;;;21.50;54.20;;;;;;5071960;28;20346;-53
2021/10/12 12:07:41;;;;;;;;;;;21.50;54.20;;;;;;5072053;28;19931;-55
2021/10/12 12:10:09;;;;;;;;;;;21.50;54.20;;;;;;5071158;28;20368;-58
2021/10/12 12:12:37;;;;;;;;;;;21.50;54.20;;;;;;5071331;28;19935;-54
2021/10/12 12:15:05;;;;;;;;;;;21.50;54.20;;;;;;5071420;28;19974;-57
2021/10/12 12:17:36;;;;;;;;;;;21.50;54.50;;;;;;5070989;28;19924;-53
2021/10/12 12:20:08;;;;;;;;;;;21.50;54.20;;;;;;5071180;28;19971;-57
2021/10/12 12:22:39;;;;;;;;;;;21.50;54.20;;;;;;5072235;28;20015;-57
2021/10/12 12:25:07;;;;;;;;;;;21.50;54.20;;;;;;5072276;28;19929;-54
2021/10/12 12:28:12;;;;;;;;;;;21.50;54.20;;;;;;5072254;28;19924;-58
2021/10/12 12:30:41;;;;;;;;;;;21.50;54.20;;;;;;4982205;28;20294;-56
2021/10/12 12:33:08;;;;;;;;;;;21.50;54.30;;;;;;4973292;28;19930;-55
2021/10/12 12:35:46;;;;;;;;;;;21.50;54.30;;;;;;4973324;28;19981;-59
2021/10/12 12:38:23;;;;;;;;;;;21.50;54.30;;;;;;4973031;28;20533;-54
2021/10/12 12:40:51;;;;;;;;;;;21.40;54.30;;;;;;4973437;28;19992;-54
2021/10/12 12:43:22;;;;;;;;;;;21.40;54.30;;;;;;4972180;28;19934;-53
2021/10/12 12:46:08;;;;;;;;;;;21.40;54.40;;;;;;4971955;28;19933;-55
2021/10/12 12:48:35;;;;;;;;;;;21.40;55.00;;;;;;4974475;28;19934;-55
2021/10/12 12:51:05;;;;;;;;;;;21.40;54.40;;;;;;4972387;28;19927;-57
2021/10/12 12:53:40;;;;;;;;;;;21.40;54.40;;;;;;4973294;28;19938;-54
2021/10/12 12:56:13;;;;;;;;;;;21.40;54.40;;;;;;4971209;28;20446;-58
2021/10/12 12:58:46;;;;;;;;;;;21.40;54.50;;;;;;4973414;28;19926;-55
2021/10/12 13:01:14;;;;;;;;;;;21.40;54.50;;;;;;4989157;28;19925;-57
2021/10/12 13:03:41;;;;;;;;;;;21.30;54.40;;;;;;5026941;28;19925;-57
2021/10/12 13:06:09;;;;;;;;;;;21.30;54.50;;;;;;5030892;28;20352;-56
2021/10/12 13:08:37;;;;;;;;;;;21.30;54.50;;;;;;5030599;28;20408;-58
2021/10/12 13:11:08;;;;;;;;;;;21.30;54.50;;;;;;5031807;28;20385;-56
2021/10/12 13:13:36;;;;;;;;;;;21.40;54.50;;;;;;5030906;28;19931;-51
2021/10/12 13:16:04;;;;;;;;;;;21.40;54.60;;;;;;5031573;28;19925;-55
2021/10/12 13:18:31;;;;;;;;;;;21.40;54.60;;;;;;5030562;28;19941;-57
2021/10/12 13:20:58;;;;;;;;;;;21.30;54.50;;;;;;5031095;28;19999;-56
2021/10/12 13:23:25;;;;;;;;;;;21.30;54.60;;;;;;5031817;28;19925;-54
2021/10/12 13:25:52;;;;;;;;;;;21.30;54.50;;;;;;5031186;28;19936;-55
2021/10/12 13:28:19;;;;;;;;;;;21.30;54.60;;;;;;5029268;28;19932;-55
2021/10/12 13:30:46;;;;;;;;;;;21.30;54.60;;;;;;5030303;28;19937;-55
2021/10/12 13:33:13;;;;;;;;;;;21.30;54.60;;;;;;5030511;28;19975;-54
2021/10/12 13:35:40;;;;;;;;;;;21.30;54.60;;;;;;5030448;28;19932;-57
2021/10/12 13:38:07;;;;;;;;;;;21.30;54.60;;;;;;5030311;28;19925;-59
2021/10/12 13:40:36;;;;;;;;;;;21.30;54.60;;;;;;5031358;28;20450;-55
2021/10/12 13:43:03;;;;;;;;;;;21.30;54.60;;;;;;5031773;28;19952;-53
2021/10/12 13:45:30;;;;;;;;;;;21.30;54.60;;;;;;5030258;28;19932;-55
2021/10/12 13:47:57;;;;;;;;;;;21.30;54.60;;;;;;5014762;28;19930;-56
2021/10/12 13:50:24;;;;;;;;;;;21.30;54.60;;;;;;5031598;28;20689;-55
2021/10/12 13:52:51;;;;;;;;;;;21.30;54.60;;;;;;5033238;28;19931;-56
2021/10/12 13:55:19;;;;;;;;;;;21.30;54.60;;;;;;5071766;28;19928;-55
2021/10/12 13:57:46;;;;;;;;;;;21.30;54.60;;;;;;5072978;28;20345;-57
2021/10/12 14:00:14;;;;;;;;;;;21.30;54.60;;;;;;5073935;28;19960;-54
2021/10/12 14:02:41;;;;;;;;;;;21.30;54.60;;;;;;5074746;28;19924;-54
2021/10/12 14:05:09;;;;;;;;;;;21.30;54.60;;;;;;5074090;28;20494;-57
2021/10/12 14:07:37;;;;;;;;;;;21.30;54.60;;;;;;5057268;28;19974;-55
2021/10/12 14:10:04;;;;;;;;;;;21.30;54.70;;;;;;5073637;28;20397;-57
2021/10/12 14:12:31;;;;;;;;;;;21.30;54.70;;;;;;5073993;28;19931;-56
2021/10/12 14:14:59;;;;;;;;;;;21.30;54.70;;;;;;5073685;28;20430;-58
2021/10/12 14:17:29;;;;;;;;;;;21.30;54.70;;;;;;5074736;28;19928;-55
2021/10/12 14:20:11;;;;;;;;;;;21.30;54.70;;;;;;5074835;28;19924;-55
2021/10/12 14:22:38;;;;;;;;;;;21.30;54.70;;;;;;5074125;28;19928;-58
2021/10/12 14:25:06;;;;;;;;;;;21.30;54.70;;;;;;5074385;28;20015;-55